sensor_id;sensor_type;location;lat;lon;timestamp;P1;durP1;ratioP1;P2;durP2;ratioP2
18142;SDS011;9197;50.930;3.140;2023-06-14T00:02:17;13.57;;;8.40;;
18142;SDS011;9197;50.930;3.140;2023-06-14T00:04:45;14.90;;;8.68;;
18142;SDS011;9197;50.930;3.140;2023-06-14T00:07:13;10.32;;;8.60;;
18142;SDS011;9197;50.930;3.140;2023-06-14T00:09:41;9.32;;;8.35;;
18142;SDS011;9197;50.930;3.140;2023-06-14T00:12:09;11.40;;;9.30;;
18142;SDS011;9197;50.930;3.140;2023-06-14T00:14:36;10.23;;;9.23;;
18142;SDS011;9197;50.930;3.140;2023-06-14T00:17:05;10.73;;;9.00;;
18142;SDS011;9197;50.930;3.140;2023-06-14T00:19:32;13.00;;;8.20;;
18142;SDS011;9197;50.930;3.140;2023-06-14T00:22:01;10.43;;;8.90;;
18142;SDS011;9197;50.930;3.140;2023-06-14T00:24:28;15.10;;;8.80;;
18142;SDS011;9197;50.930;3.140;2023-06-14T00:26:56;11.10;;;8.02;;
18142;SDS011;9197;50.930;3.140;2023-06-14T00:29:23;12.13;;;9.23;;
18142;SDS011;9197;50.930;3.140;2023-06-14T00:31:50;10.68;;;8.38;;
18142;SDS011;9197;50.930;3.140;2023-06-14T00:34:19;12.57;;;8.63;;
18142;SDS011;9197;50.930;3.140;2023-06-14T00:36:46;9.13;;;8.10;;
18142;SDS011;9197;50.930;3.140;2023-06-14T00:39:13;13.65;;;8.45;;
18142;SDS011;9197;50.930;3.140;2023-06-14T00:41:41;8.88;;;7.93;;
18142;SDS011;9197;50.930;3.140;2023-06-14T00:44:08;9.27;;;7.22;;
18142;SDS011;9197;50.930;3.140;2023-06-14T00:46:35;11.63;;;8.40;;
18142;SDS011;9197;50.930;3.140;2023-06-14T00:49:02;9.77;;;8.88;;
18142;SDS011;9197;50.930;3.140;2023-06-14T00:51:31;10.25;;;8.65;;
18142;SDS011;9197;50.930;3.140;2023-06-14T00:53:58;10.43;;;8.75;;
18142;SDS011;9197;50.930;3.140;2023-06-14T00:56:26;8.90;;;8.00;;
18142;SDS011;9197;50.930;3.140;2023-06-14T00:58:54;12.32;;;8.73;;
18142;SDS011;9197;50.930;3.140;2023-06-14T01:01:22;11.70;;;9.77;;
18142;SDS011;9197;50.930;3.140;2023-06-14T01:03:49;12.30;;;9.60;;
18142;SDS011;9197;50.930;3.140;2023-06-14T01:06:18;10.20;;;9.20;;
18142;SDS011;9197;50.930;3.140;2023-06-14T01:08:56;10.75;;;9.63;;
18142;SDS011;9197;50.930;3.140;2023-06-14T01:11:24;10.88;;;9.77;;
18142;SDS011;9197;50.930;3.140;2023-06-14T01:13:54;12.57;;;10.23;;
18142;SDS011;9197;50.930;3.140;2023-06-14T01:16:23;9.48;;;8.68;;
18142;SDS011;9197;50.930;3.140;2023-06-14T01:18:51;15.02;;;10.10;;
18142;SDS011;9197;50.930;3.140;2023-06-14T01:21:21;10.82;;;9.30;;
18142;SDS011;9197;50.930;3.140;2023-06-14T01:23:50;14.18;;;10.20;;
18142;SDS011;9197;50.930;3.140;2023-06-14T01:26:18;15.07;;;11.15;;
18142;SDS011;9197;50.930;3.140;2023-06-14T01:28:46;10.73;;;9.63;;
18142;SDS011;9197;50.930;3.140;2023-06-14T01:31:16;10.43;;;8.77;;
18142;SDS011;9197;50.930;3.140;2023-06-14T01:33:43;11.05;;;9.85;;
18142;SDS011;9197;50.930;3.140;2023-06-14T01:36:11;10.77;;;9.77;;
18142;SDS011;9197;50.930;3.140;2023-06-14T01:38:39;14.50;;;8.80;;
18142;SDS011;9197;50.930;3.140;2023-06-14T01:41:08;10.85;;;9.60;;
18142;SDS011;9197;50.930;3.140;2023-06-14T01:43:36;11.60;;;9.60;;
18142;SDS011;9197;50.930;3.140;2023-06-14T01:46:04;13.00;;;10.05;;
18142;SDS011;9197;50.930;3.140;2023-06-14T01:48:32;14.48;;;9.80;;
18142;SDS011;9197;50.930;3.140;2023-06-14T01:50:59;11.32;;;9.43;;
18142;SDS011;9197;50.930;3.140;2023-06-14T01:53:26;10.32;;;9.15;;
18142;SDS011;9197;50.930;3.140;2023-06-14T01:55:53;17.40;;;10.45;;
18142;SDS011;9197;50.930;3.140;2023-06-14T01:58:22;10.88;;;9.65;;
18142;SDS011;9197;50.930;3.140;2023-06-14T02:00:51;10.30;;;9.30;;
18142;SDS011;9197;50.930;3.140;2023-06-14T02:03:20;13.75;;;9.90;;
18142;SDS011;9197;50.930;3.140;2023-06-14T02:05:48;10.80;;;9.73;;
18142;SDS011;9197;50.930;3.140;2023-06-14T02:08:15;13.35;;;11.25;;
18142;SDS011;9197;50.930;3.140;2023-06-14T02:10:42;12.32;;;9.20;;
18142;SDS011;9197;50.930;3.140;2023-06-14T02:13:10;12.55;;;10.40;;
18142;SDS011;9197;50.930;3.140;2023-06-14T02:15:38;12.73;;;10.95;;
18142;SDS011;9197;50.930;3.140;2023-06-14T02:18:09;10.48;;;9.55;;
18142;SDS011;9197;50.930;3.140;2023-06-14T02:20:36;12.40;;;11.00;;
18142;SDS011;9197;50.930;3.140;2023-06-14T02:23:04;11.48;;;10.30;;
18142;SDS011;9197;50.930;3.140;2023-06-14T02:25:32;13.63;;;10.30;;
18142;SDS011;9197;50.930;3.140;2023-06-14T02:28:00;12.50;;;11.23;;
18142;SDS011;9197;50.930;3.140;2023-06-14T02:30:27;14.35;;;10.27;;
18142;SDS011;9197;50.930;3.140;2023-06-14T02:32:56;15.90;;;10.15;;
18142;SDS011;9197;50.930;3.140;2023-06-14T02:35:24;11.95;;;9.88;;
18142;SDS011;9197;50.930;3.140;2023-06-14T02:37:51;11.40;;;10.00;;
18142;SDS011;9197;50.930;3.140;2023-06-14T02:40:19;11.38;;;9.68;;
18142;SDS011;9197;50.930;3.140;2023-06-14T02:42:46;15.10;;;10.40;;
18142;SDS011;9197;50.930;3.140;2023-06-14T02:45:13;11.07;;;10.02;;
18142;SDS011;9197;50.930;3.140;2023-06-14T02:47:41;12.15;;;10.57;;
18142;SDS011;9197;50.930;3.140;2023-06-14T02:50:09;14.13;;;10.02;;
18142;SDS011;9197;50.930;3.140;2023-06-14T02:52:37;12.00;;;10.85;;
18142;SDS011;9197;50.930;3.140;2023-06-14T02:55:07;13.02;;;10.50;;
18142;SDS011;9197;50.930;3.140;2023-06-14T02:57:34;11.77;;;10.63;;
18142;SDS011;9197;50.930;3.140;2023-06-14T03:00:02;15.38;;;11.18;;
18142;SDS011;9197;50.930;3.140;2023-06-14T03:02:29;16.75;;;10.40;;
18142;SDS011;9197;50.930;3.140;2023-06-14T03:04:56;12.40;;;10.25;;
18142;SDS011;9197;50.930;3.140;2023-06-14T03:07:27;11.75;;;10.43;;
18142;SDS011;9197;50.930;3.140;2023-06-14T03:09:55;13.15;;;10.50;;
18142;SDS011;9197;50.930;3.140;2023-06-14T03:12:22;10.95;;;9.45;;
18142;SDS011;9197;50.930;3.140;2023-06-14T03:14:50;12.40;;;10.13;;
18142;SDS011;9197;50.930;3.140;2023-06-14T03:17:18;15.63;;;10.52;;
18142;SDS011;9197;50.930;3.140;2023-06-14T03:19:45;11.20;;;10.18;;
18142;SDS011;9197;50.930;3.140;2023-06-14T03:22:13;14.65;;;10.95;;
18142;SDS011;9197;50.930;3.140;2023-06-14T03:24:41;12.18;;;10.93;;
18142;SDS011;9197;50.930;3.140;2023-06-14T03:27:09;12.30;;;10.50;;
18142;SDS011;9197;50.930;3.140;2023-06-14T03:29:37;10.88;;;9.52;;
18142;SDS011;9197;50.930;3.140;2023-06-14T03:32:05;17.10;;;11.55;;
18142;SDS011;9197;50.930;3.140;2023-06-14T03:34:32;14.55;;;12.35;;
18142;SDS011;9197;50.930;3.140;2023-06-14T03:36:59;13.35;;;10.43;;
18142;SDS011;9197;50.930;3.140;2023-06-14T03:39:27;15.40;;;12.03;;
18142;SDS011;9197;50.930;3.140;2023-06-14T03:41:55;12.40;;;11.10;;
18142;SDS011;9197;50.930;3.140;2023-06-14T03:44:22;11.13;;;10.02;;
18142;SDS011;9197;50.930;3.140;2023-06-14T03:46:50;12.57;;;10.60;;
18142;SDS011;9197;50.930;3.140;2023-06-14T03:49:17;13.18;;;11.15;;
18142;SDS011;9197;50.930;3.140;2023-06-14T03:51:44;17.70;;;11.40;;
18142;SDS011;9197;50.930;3.140;2023-06-14T03:54:16;13.48;;;11.50;;
18142;SDS011;9197;50.930;3.140;2023-06-14T03:56:43;16.60;;;11.32;;
18142;SDS011;9197;50.930;3.140;2023-06-14T03:59:13;16.75;;;11.88;;
18142;SDS011;9197;50.930;3.140;2023-06-14T04:01:40;13.93;;;11.38;;
18142;SDS011;9197;50.930;3.140;2023-06-14T04:04:11;12.75;;;11.38;;
18142;SDS011;9197;50.930;3.140;2023-06-14T04:06:38;16.00;;;11.48;;
18142;SDS011;9197;50.930;3.140;2023-06-14T04:09:08;14.18;;;11.73;;
18142;SDS011;9197;50.930;3.140;2023-06-14T04:11:36;14.43;;;11.00;;
18142;SDS011;9197;50.930;3.140;2023-06-14T04:14:03;16.73;;;11.43;;
18142;SDS011;9197;50.930;3.140;2023-06-14T04:16:32;13.35;;;10.95;;
18142;SDS011;9197;50.930;3.140;2023-06-14T04:18:59;17.15;;;11.77;;
18142;SDS011;9197;50.930;3.140;2023-06-14T04:21:26;15.05;;;10.27;;
18142;SDS011;9197;50.930;3.140;2023-06-14T04:23:54;14.68;;;10.98;;
18142;SDS011;9197;50.930;3.140;2023-06-14T04:26:22;14.52;;;11.50;;
18142;SDS011;9197;50.930;3.140;2023-06-14T04:28:54;12.18;;;10.65;;
18142;SDS011;9197;50.930;3.140;2023-06-14T04:31:27;12.52;;;9.90;;
18142;SDS011;9197;50.930;3.140;2023-06-14T04:33:55;13.02;;;10.13;;
18142;SDS011;9197;50.930;3.140;2023-06-14T04:36:24;14.88;;;9.77;;
18142;SDS011;9197;50.930;3.140;2023-06-14T04:38:53;11.55;;;9.55;;
18142;SDS011;9197;50.930;3.140;2023-06-14T04:41:20;12.77;;;9.43;;
18142;SDS011;9197;50.930;3.140;2023-06-14T04:43:48;18.60;;;11.65;;
18142;SDS011;9197;50.930;3.140;2023-06-14T04:46:15;15.65;;;10.40;;
18142;SDS011;9197;50.930;3.140;2023-06-14T04:48:43;18.60;;;9.60;;
18142;SDS011;9197;50.930;3.140;2023-06-14T04:51:14;15.48;;;10.63;;
18142;SDS011;9197;50.930;3.140;2023-06-14T04:53:41;15.88;;;10.20;;
18142;SDS011;9197;50.930;3.140;2023-06-14T04:56:09;16.42;;;10.32;;
18142;SDS011;9197;50.930;3.140;2023-06-14T04:58:36;16.75;;;10.43;;
18142;SDS011;9197;50.930;3.140;2023-06-14T05:01:03;12.23;;;10.02;;
18142;SDS011;9197;50.930;3.140;2023-06-14T05:03:31;15.75;;;9.90;;
18142;SDS011;9197;50.930;3.140;2023-06-14T05:05:59;12.75;;;9.68;;
18142;SDS011;9197;50.930;3.140;2023-06-14T05:08:28;13.23;;;9.82;;
18142;SDS011;9197;50.930;3.140;2023-06-14T05:10:55;14.30;;;9.18;;
18142;SDS011;9197;50.930;3.140;2023-06-14T05:13:23;13.35;;;9.50;;
18142;SDS011;9197;50.930;3.140;2023-06-14T05:15:53;12.85;;;9.20;;
18142;SDS011;9197;50.930;3.140;2023-06-14T05:18:20;17.15;;;9.88;;
18142;SDS011;9197;50.930;3.140;2023-06-14T05:20:47;17.65;;;9.85;;
18142;SDS011;9197;50.930;3.140;2023-06-14T05:23:14;16.92;;;9.60;;
18142;SDS011;9197;50.930;3.140;2023-06-14T05:25:43;17.77;;;8.98;;
18142;SDS011;9197;50.930;3.140;2023-06-14T05:28:11;16.17;;;8.70;;
18142;SDS011;9197;50.930;3.140;2023-06-14T05:30:38;18.05;;;8.88;;
18142;SDS011;9197;50.930;3.140;2023-06-14T05:33:05;11.52;;;9.05;;
18142;SDS011;9197;50.930;3.140;2023-06-14T05:35:33;17.40;;;9.77;;
18142;SDS011;9197;50.930;3.140;2023-06-14T05:38:00;12.23;;;8.80;;
18142;SDS011;9197;50.930;3.140;2023-06-14T05:40:27;16.05;;;9.25;;
18142;SDS011;9197;50.930;3.140;2023-06-14T05:42:56;16.13;;;10.13;;
18142;SDS011;9197;50.930;3.140;2023-06-14T05:45:23;19.33;;;8.77;;
18142;SDS011;9197;50.930;3.140;2023-06-14T05:47:51;10.43;;;9.32;;
18142;SDS011;9197;50.930;3.140;2023-06-14T05:50:19;13.52;;;8.93;;
18142;SDS011;9197;50.930;3.140;2023-06-14T05:52:47;19.70;;;8.90;;
18142;SDS011;9197;50.930;3.140;2023-06-14T05:55:15;14.45;;;9.23;;
18142;SDS011;9197;50.930;3.140;2023-06-14T05:57:43;12.65;;;9.25;;
18142;SDS011;9197;50.930;3.140;2023-06-14T06:00:12;10.88;;;9.50;;
18142;SDS011;9197;50.930;3.140;2023-06-14T06:02:40;12.85;;;9.73;;
18142;SDS011;9197;50.930;3.140;2023-06-14T06:05:09;14.23;;;9.88;;
18142;SDS011;9197;50.930;3.140;2023-06-14T06:07:36;13.05;;;9.68;;
18142;SDS011;9197;50.930;3.140;2023-06-14T06:10:05;11.20;;;9.55;;
18142;SDS011;9197;50.930;3.140;2023-06-14T06:12:33;9.50;;;8.60;;
18142;SDS011;9197;50.930;3.140;2023-06-14T06:15:00;9.85;;;8.68;;
18142;SDS011;9197;50.930;3.140;2023-06-14T06:17:29;16.02;;;9.88;;
18142;SDS011;9197;50.930;3.140;2023-06-14T06:19:56;14.07;;;8.10;;
18142;SDS011;9197;50.930;3.140;2023-06-14T06:22:23;10.52;;;9.07;;
18142;SDS011;9197;50.930;3.140;2023-06-14T06:24:51;13.38;;;8.95;;
18142;SDS011;9197;50.930;3.140;2023-06-14T06:27:18;11.82;;;9.13;;
18142;SDS011;9197;50.930;3.140;2023-06-14T06:29:45;14.15;;;8.50;;
18142;SDS011;9197;50.930;3.140;2023-06-14T06:32:13;13.65;;;8.68;;
18142;SDS011;9197;50.930;3.140;2023-06-14T06:34:42;11.60;;;9.30;;
18142;SDS011;9197;50.930;3.140;2023-06-14T06:37:10;12.45;;;8.88;;
18142;SDS011;9197;50.930;3.140;2023-06-14T06:39:37;17.15;;;9.32;;
18142;SDS011;9197;50.930;3.140;2023-06-14T06:42:04;11.82;;;8.50;;
18142;SDS011;9197;50.930;3.140;2023-06-14T06:44:32;9.90;;;8.57;;
18142;SDS011;9197;50.930;3.140;2023-06-14T06:46:59;10.60;;;9.55;;
18142;SDS011;9197;50.930;3.140;2023-06-14T06:49:27;14.98;;;9.82;;
18142;SDS011;9197;50.930;3.140;2023-06-14T06:52:02;13.40;;;9.93;;
18142;SDS011;9197;50.930;3.140;2023-06-14T06:54:30;11.35;;;8.57;;
18142;SDS011;9197;50.930;3.140;2023-06-14T06:56:58;12.45;;;9.77;;
18142;SDS011;9197;50.930;3.140;2023-06-14T06:59:25;15.27;;;9.07;;
18142;SDS011;9197;50.930;3.140;2023-06-14T07:01:53;14.68;;;9.57;;
18142;SDS011;9197;50.930;3.140;2023-06-14T07:04:20;18.50;;;10.20;;
18142;SDS011;9197;50.930;3.140;2023-06-14T07:06:47;12.30;;;9.38;;
18142;SDS011;9197;50.930;3.140;2023-06-14T07:09:16;10.63;;;8.25;;
18142;SDS011;9197;50.930;3.140;2023-06-14T07:11:46;11.55;;;8.77;;
18142;SDS011;9197;50.930;3.140;2023-06-14T07:14:13;16.48;;;9.25;;
18142;SDS011;9197;50.930;3.140;2023-06-14T07:16:41;9.52;;;8.50;;
18142;SDS011;9197;50.930;3.140;2023-06-14T07:19:08;10.63;;;8.45;;
18142;SDS011;9197;50.930;3.140;2023-06-14T07:21:36;9.98;;;7.90;;
18142;SDS011;9197;50.930;3.140;2023-06-14T07:24:04;9.73;;;7.93;;
18142;SDS011;9197;50.930;3.140;2023-06-14T07:26:34;14.13;;;8.10;;
18142;SDS011;9197;50.930;3.140;2023-06-14T07:29:01;8.68;;;7.82;;
18142;SDS011;9197;50.930;3.140;2023-06-14T07:31:29;9.52;;;7.72;;
18142;SDS011;9197;50.930;3.140;2023-06-14T07:33:56;10.32;;;8.15;;
18142;SDS011;9197;50.930;3.140;2023-06-14T07:36:23;9.75;;;8.35;;
18142;SDS011;9197;50.930;3.140;2023-06-14T07:38:50;9.25;;;8.35;;
18142;SDS011;9197;50.930;3.140;2023-06-14T07:41:18;12.23;;;8.63;;
18142;SDS011;9197;50.930;3.140;2023-06-14T07:43:46;11.23;;;9.57;;
18142;SDS011;9197;50.930;3.140;2023-06-14T07:46:14;10.27;;;9.15;;
18142;SDS011;9197;50.930;3.140;2023-06-14T07:48:41;13.65;;;11.35;;
18142;SDS011;9197;50.930;3.140;2023-06-14T07:51:08;15.25;;;11.15;;
18142;SDS011;9197;50.930;3.140;2023-06-14T07:53:36;11.38;;;10.15;;
18142;SDS011;9197;50.930;3.140;2023-06-14T07:56:03;10.90;;;9.73;;
18142;SDS011;9197;50.930;3.140;2023-06-14T07:58:30;11.13;;;9.93;;
18142;SDS011;9197;50.930;3.140;2023-06-14T08:00:59;12.07;;;11.02;;
18142;SDS011;9197;50.930;3.140;2023-06-14T08:03:31;11.77;;;9.77;;
18142;SDS011;9197;50.930;3.140;2023-06-14T08:05:58;9.77;;;8.85;;
18142;SDS011;9197;50.930;3.140;2023-06-14T08:08:25;12.02;;;8.68;;
18142;SDS011;9197;50.930;3.140;2023-06-14T08:10:52;10.32;;;9.32;;
18142;SDS011;9197;50.930;3.140;2023-06-14T08:13:20;12.60;;;9.95;;
18142;SDS011;9197;50.930;3.140;2023-06-14T08:15:47;9.80;;;9.00;;
18142;SDS011;9197;50.930;3.140;2023-06-14T08:18:16;9.77;;;8.80;;
18142;SDS011;9197;50.930;3.140;2023-06-14T08:20:43;10.80;;;9.77;;
18142;SDS011;9197;50.930;3.140;2023-06-14T08:23:11;10.88;;;9.77;;
18142;SDS011;9197;50.930;3.140;2023-06-14T08:25:38;9.63;;;8.70;;
18142;SDS011;9197;50.930;3.140;2023-06-14T08:28:05;8.95;;;8.05;;
18142;SDS011;9197;50.930;3.140;2023-06-14T08:30:32;8.55;;;7.70;;
18142;SDS011;9197;50.930;3.140;2023-06-14T08:33:00;11.93;;;7.70;;
18142;SDS011;9197;50.930;3.140;2023-06-14T08:35:28;11.40;;;8.88;;
18142;SDS011;9197;50.930;3.140;2023-06-14T08:37:56;10.30;;;8.80;;
18142;SDS011;9197;50.930;3.140;2023-06-14T08:40:23;8.80;;;8.07;;
18142;SDS011;9197;50.930;3.140;2023-06-14T08:42:51;11.02;;;8.57;;
18142;SDS011;9197;50.930;3.140;2023-06-14T08:45:18;9.18;;;8.27;;
18142;SDS011;9197;50.930;3.140;2023-06-14T08:47:46;11.07;;;8.82;;
18142;SDS011;9197;50.930;3.140;2023-06-14T08:50:17;13.95;;;9.48;;
18142;SDS011;9197;50.930;3.140;2023-06-14T08:52:47;10.38;;;9.32;;
18142;SDS011;9197;50.930;3.140;2023-06-14T08:55:16;10.65;;;9.05;;
18142;SDS011;9197;50.930;3.140;2023-06-14T08:57:45;10.85;;;8.75;;
18142;SDS011;9197;50.930;3.140;2023-06-14T09:00:14;9.77;;;8.55;;
18142;SDS011;9197;50.930;3.140;2023-06-14T09:02:42;10.38;;;7.88;;
18142;SDS011;9197;50.930;3.140;2023-06-14T09:05:10;8.57;;;7.82;;
18142;SDS011;9197;50.930;3.140;2023-06-14T09:07:38;9.88;;;8.82;;
18142;SDS011;9197;50.930;3.140;2023-06-14T09:10:09;9.52;;;8.63;;
18142;SDS011;9197;50.930;3.140;2023-06-14T09:12:36;8.90;;;8.20;;
18142;SDS011;9197;50.930;3.140;2023-06-14T09:15:05;9.77;;;8.32;;
18142;SDS011;9197;50.930;3.140;2023-06-14T09:17:34;8.52;;;7.68;;
18142;SDS011;9197;50.930;3.140;2023-06-14T09:20:01;9.48;;;7.70;;
18142;SDS011;9197;50.930;3.140;2023-06-14T09:22:34;8.55;;;7.63;;
18142;SDS011;9197;50.930;3.140;2023-06-14T09:25:01;14.80;;;7.53;;
18142;SDS011;9197;50.930;3.140;2023-06-14T09:27:32;8.15;;;7.47;;
18142;SDS011;9197;50.930;3.140;2023-06-14T09:30:01;9.38;;;7.65;;
18142;SDS011;9197;50.930;3.140;2023-06-14T09:32:28;8.13;;;7.45;;
18142;SDS011;9197;50.930;3.140;2023-06-14T09:34:55;8.45;;;6.97;;
18142;SDS011;9197;50.930;3.140;2023-06-14T09:37:26;8.15;;;7.43;;
18142;SDS011;9197;50.930;3.140;2023-06-14T09:39:54;9.93;;;7.35;;
18142;SDS011;9197;50.930;3.140;2023-06-14T09:42:22;7.82;;;7.18;;
18142;SDS011;9197;50.930;3.140;2023-06-14T09:44:52;9.82;;;7.43;;
18142;SDS011;9197;50.930;3.140;2023-06-14T09:47:20;8.82;;;7.18;;
18142;SDS011;9197;50.930;3.140;2023-06-14T09:49:48;8.23;;;6.97;;
18142;SDS011;9197;50.930;3.140;2023-06-14T09:52:15;11.15;;;7.82;;
18142;SDS011;9197;50.930;3.140;2023-06-14T09:54:43;8.23;;;7.38;;
18142;SDS011;9197;50.930;3.140;2023-06-14T09:57:13;8.70;;;8.00;;
18142;SDS011;9197;50.930;3.140;2023-06-14T09:59:42;8.98;;;8.38;;
18142;SDS011;9197;50.930;3.140;2023-06-14T10:02:13;8.35;;;7.53;;
18142;SDS011;9197;50.930;3.140;2023-06-14T10:04:43;8.68;;;7.68;;
18142;SDS011;9197;50.930;3.140;2023-06-14T10:07:13;8.98;;;7.78;;
18142;SDS011;9197;50.930;3.140;2023-06-14T10:09:41;9.88;;;7.47;;
18142;SDS011;9197;50.930;3.140;2023-06-14T10:12:13;8.13;;;7.47;;
18142;SDS011;9197;50.930;3.140;2023-06-14T10:14:46;9.57;;;8.60;;
18142;SDS011;9197;50.930;3.140;2023-06-14T10:17:20;10.00;;;9.10;;
18142;SDS011;9197;50.930;3.140;2023-06-14T10:19:50;9.10;;;8.27;;
18142;SDS011;9197;50.930;3.140;2023-06-14T10:22:19;9.43;;;8.70;;
18142;SDS011;9197;50.930;3.140;2023-06-14T10:24:50;9.32;;;8.43;;
18142;SDS011;9197;50.930;3.140;2023-06-14T10:27:17;10.25;;;8.35;;
18142;SDS011;9197;50.930;3.140;2023-06-14T10:30:05;9.45;;;8.63;;
18142;SDS011;9197;50.930;3.140;2023-06-14T10:32:34;8.60;;;7.93;;
18142;SDS011;9197;50.930;3.140;2023-06-14T10:35:02;11.10;;;8.40;;
18142;SDS011;9197;50.930;3.140;2023-06-14T10:37:34;9.50;;;7.90;;
18142;SDS011;9197;50.930;3.140;2023-06-14T10:40:02;9.43;;;8.73;;
18142;SDS011;9197;50.930;3.140;2023-06-14T10:42:31;9.98;;;8.68;;
18142;SDS011;9197;50.930;3.140;2023-06-14T10:44:59;8.85;;;8.05;;
18142;SDS011;9197;50.930;3.140;2023-06-14T10:47:28;11.25;;;7.97;;
18142;SDS011;9197;50.930;3.140;2023-06-14T10:49:57;8.60;;;8.05;;
18142;SDS011;9197;50.930;3.140;2023-06-14T10:52:31;9.70;;;8.57;;
18142;SDS011;9197;50.930;3.140;2023-06-14T10:55:05;9.27;;;8.32;;
18142;SDS011;9197;50.930;3.140;2023-06-14T10:57:34;8.55;;;7.95;;
18142;SDS011;9197;50.930;3.140;2023-06-14T11:00:02;8.23;;;7.68;;
18142;SDS011;9197;50.930;3.140;2023-06-14T11:05:28;11.05;;;9.68;;
18142;SDS011;9197;50.930;3.140;2023-06-14T11:08:10;9.63;;;8.82;;
18142;SDS011;9197;50.930;3.140;2023-06-14T11:10:39;9.35;;;8.55;;
18142;SDS011;9197;50.930;3.140;2023-06-14T11:13:07;10.38;;;9.38;;
18142;SDS011;9197;50.930;3.140;2023-06-14T11:15:35;9.65;;;8.70;;
18142;SDS011;9197;50.930;3.140;2023-06-14T11:18:04;9.15;;;8.45;;
18142;SDS011;9197;50.930;3.140;2023-06-14T11:20:33;9.63;;;8.20;;
18142;SDS011;9197;50.930;3.140;2023-06-14T11:23:01;9.07;;;8.27;;
18142;SDS011;9197;50.930;3.140;2023-06-14T11:25:28;10.18;;;9.25;;
18142;SDS011;9197;50.930;3.140;2023-06-14T11:27:56;9.30;;;8.48;;
18142;SDS011;9197;50.930;3.140;2023-06-14T11:30:23;10.05;;;8.27;;
18142;SDS011;9197;50.930;3.140;2023-06-14T11:32:52;10.73;;;8.85;;
18142;SDS011;9197;50.930;3.140;2023-06-14T11:35:23;12.48;;;9.02;;
18142;SDS011;9197;50.930;3.140;2023-06-14T11:37:53;9.70;;;8.75;;
18142;SDS011;9197;50.930;3.140;2023-06-14T11:40:23;9.88;;;8.88;;
18142;SDS011;9197;50.930;3.140;2023-06-14T11:42:54;9.73;;;8.68;;
18142;SDS011;9197;50.930;3.140;2023-06-14T11:45:25;9.05;;;8.30;;
18142;SDS011;9197;50.930;3.140;2023-06-14T11:47:53;10.10;;;8.38;;
18142;SDS011;9197;50.930;3.140;2023-06-14T11:50:21;8.82;;;7.97;;
18142;SDS011;9197;50.930;3.140;2023-06-14T11:52:52;9.02;;;8.38;;
18142;SDS011;9197;50.930;3.140;2023-06-14T11:55:20;8.98;;;8.18;;
18142;SDS011;9197;50.930;3.140;2023-06-14T11:57:47;8.32;;;7.78;;
18142;SDS011;9197;50.930;3.140;2023-06-14T12:00:15;8.25;;;7.45;;
18142;SDS011;9197;50.930;3.140;2023-06-14T12:02:43;8.77;;;8.13;;
18142;SDS011;9197;50.930;3.140;2023-06-14T12:05:10;8.82;;;8.20;;
18142;SDS011;9197;50.930;3.140;2023-06-14T12:07:37;8.45;;;7.63;;
18142;SDS011;9197;50.930;3.140;2023-06-14T12:10:07;8.93;;;8.18;;
18142;SDS011;9197;50.930;3.140;2023-06-14T12:12:37;8.68;;;7.78;;
18142;SDS011;9197;50.930;3.140;2023-06-14T12:15:05;8.55;;;7.18;;
18142;SDS011;9197;50.930;3.140;2023-06-14T12:17:33;8.55;;;7.75;;
18142;SDS011;9197;50.930;3.140;2023-06-14T12:20:04;9.20;;;8.45;;
18142;SDS011;9197;50.930;3.140;2023-06-14T12:22:39;8.35;;;7.55;;
18142;SDS011;9197;50.930;3.140;2023-06-14T12:25:06;7.95;;;7.35;;
18142;SDS011;9197;50.930;3.140;2023-06-14T12:27:40;10.40;;;7.95;;
18142;SDS011;9197;50.930;3.140;2023-06-14T12:30:08;8.35;;;7.53;;
18142;SDS011;9197;50.930;3.140;2023-06-14T12:32:35;7.97;;;7.28;;
18142;SDS011;9197;50.930;3.140;2023-06-14T12:35:03;8.45;;;7.82;;
18142;SDS011;9197;50.930;3.140;2023-06-14T12:37:30;8.68;;;7.45;;
18142;SDS011;9197;50.930;3.140;2023-06-14T12:39:57;8.30;;;7.60;;
18142;SDS011;9197;50.930;3.140;2023-06-14T12:42:25;9.75;;;8.90;;
18142;SDS011;9197;50.930;3.140;2023-06-14T12:44:53;8.23;;;7.43;;
18142;SDS011;9197;50.930;3.140;2023-06-14T12:47:21;10.57;;;7.32;;
18142;SDS011;9197;50.930;3.140;2023-06-14T12:49:48;9.02;;;7.28;;
18142;SDS011;9197;50.930;3.140;2023-06-14T12:52:15;8.93;;;7.38;;
18142;SDS011;9197;50.930;3.140;2023-06-14T12:54:42;8.00;;;7.22;;
18142;SDS011;9197;50.930;3.140;2023-06-14T12:57:10;8.05;;;7.38;;
18142;SDS011;9197;50.930;3.140;2023-06-14T12:59:37;8.63;;;7.72;;
18142;SDS011;9197;50.930;3.140;2023-06-14T13:02:13;8.93;;;7.90;;
18142;SDS011;9197;50.930;3.140;2023-06-14T13:04:41;8.80;;;7.70;;
18142;SDS011;9197;50.930;3.140;2023-06-14T13:07:08;9.68;;;7.85;;
18142;SDS011;9197;50.930;3.140;2023-06-14T13:09:36;8.50;;;7.70;;
18142;SDS011;9197;50.930;3.140;2023-06-14T13:12:05;7.93;;;7.18;;
18142;SDS011;9197;50.930;3.140;2023-06-14T13:14:32;7.22;;;6.45;;
18142;SDS011;9197;50.930;3.140;2023-06-14T13:17:00;6.82;;;6.10;;
18142;SDS011;9197;50.930;3.140;2023-06-14T13:19:28;9.48;;;7.00;;
18142;SDS011;9197;50.930;3.140;2023-06-14T13:21:56;6.57;;;6.00;;
18142;SDS011;9197;50.930;3.140;2023-06-14T13:24:23;8.50;;;5.80;;
18142;SDS011;9197;50.930;3.140;2023-06-14T13:26:50;8.52;;;6.75;;
18142;SDS011;9197;50.930;3.140;2023-06-14T13:29:18;6.65;;;5.97;;
18142;SDS011;9197;50.930;3.140;2023-06-14T13:31:46;7.07;;;6.43;;
18142;SDS011;9197;50.930;3.140;2023-06-14T13:34:13;8.48;;;6.00;;
18142;SDS011;9197;50.930;3.140;2023-06-14T13:36:41;6.88;;;6.28;;
18142;SDS011;9197;50.930;3.140;2023-06-14T13:39:09;6.35;;;5.75;;
18142;SDS011;9197;50.930;3.140;2023-06-14T13:41:37;6.82;;;6.13;;
18142;SDS011;9197;50.930;3.140;2023-06-14T13:44:04;6.30;;;5.72;;
18142;SDS011;9197;50.930;3.140;2023-06-14T13:46:31;6.50;;;5.90;;
18142;SDS011;9197;50.930;3.140;2023-06-14T13:48:58;6.70;;;6.20;;
18142;SDS011;9197;50.930;3.140;2023-06-14T13:51:27;7.20;;;6.50;;
18142;SDS011;9197;50.930;3.140;2023-06-14T13:53:56;7.35;;;6.10;;
18142;SDS011;9197;50.930;3.140;2023-06-14T13:56:23;6.45;;;5.88;;
18142;SDS011;9197;50.930;3.140;2023-06-14T13:58:50;6.80;;;6.18;;
18142;SDS011;9197;50.930;3.140;2023-06-14T14:01:18;6.72;;;5.68;;
18142;SDS011;9197;50.930;3.140;2023-06-14T14:03:46;7.07;;;6.38;;
18142;SDS011;9197;50.930;3.140;2023-06-14T14:06:14;7.47;;;5.38;;
18142;SDS011;9197;50.930;3.140;2023-06-14T14:08:42;6.45;;;5.82;;
18142;SDS011;9197;50.930;3.140;2023-06-14T14:11:11;8.52;;;6.57;;
18142;SDS011;9197;50.930;3.140;2023-06-14T14:13:38;7.47;;;6.70;;
18142;SDS011;9197;50.930;3.140;2023-06-14T14:16:07;6.88;;;6.35;;
18142;SDS011;9197;50.930;3.140;2023-06-14T14:18:35;6.90;;;6.28;;
18142;SDS011;9197;50.930;3.140;2023-06-14T14:21:03;9.50;;;6.05;;
18142;SDS011;9197;50.930;3.140;2023-06-14T14:23:31;6.97;;;6.25;;
18142;SDS011;9197;50.930;3.140;2023-06-14T14:25:58;6.95;;;6.35;;
18142;SDS011;9197;50.930;3.140;2023-06-14T14:28:30;7.00;;;5.93;;
18142;SDS011;9197;50.930;3.140;2023-06-14T14:30:57;8.32;;;6.82;;
18142;SDS011;9197;50.930;3.140;2023-06-14T14:33:25;6.95;;;6.28;;
18142;SDS011;9197;50.930;3.140;2023-06-14T14:35:52;6.50;;;6.00;;
18142;SDS011;9197;50.930;3.140;2023-06-14T14:38:19;7.30;;;6.55;;
18142;SDS011;9197;50.930;3.140;2023-06-14T14:40:47;6.30;;;5.45;;
18142;SDS011;9197;50.930;3.140;2023-06-14T14:43:15;6.70;;;5.55;;
18142;SDS011;9197;50.930;3.140;2023-06-14T14:45:43;7.18;;;5.40;;
18142;SDS011;9197;50.930;3.140;2023-06-14T14:48:11;6.88;;;6.03;;
18142;SDS011;9197;50.930;3.140;2023-06-14T14:50:38;8.73;;;5.70;;
18142;SDS011;9197;50.930;3.140;2023-06-14T14:53:05;8.27;;;6.10;;
18142;SDS011;9197;50.930;3.140;2023-06-14T14:55:32;9.05;;;5.88;;
18142;SDS011;9197;50.930;3.140;2023-06-14T14:58:02;6.80;;;6.30;;
18142;SDS011;9197;50.930;3.140;2023-06-14T15:00:31;6.88;;;5.30;;